sensor_id;sensor_type;location;lat;lon;timestamp;P1;durP1;ratioP1;P2;durP2;ratioP2
7817;SDS011;3954;52.624;9.212;2023-02-17T00:00:49;39.08;;;35.10;;
7817;SDS011;3954;52.624;9.212;2023-02-17T00:03:16;37.60;;;33.80;;
7817;SDS011;3954;52.624;9.212;2023-02-17T00:05:42;38.17;;;34.15;;
7817;SDS011;3954;52.624;9.212;2023-02-17T00:08:09;38.10;;;34.17;;
7817;SDS011;3954;52.624;9.212;2023-02-17T00:10:35;36.50;;;32.88;;
7817;SDS011;3954;52.624;9.212;2023-02-17T00:13:01;37.38;;;33.60;;
7817;SDS011;3954;52.624;9.212;2023-02-17T00:15:27;35.50;;;32.13;;
7817;SDS011;3954;52.624;9.212;2023-02-17T00:17:53;35.23;;;31.87;;
7817;SDS011;3954;52.624;9.212;2023-02-17T00:20:21;33.45;;;30.20;;
7817;SDS011;3954;52.624;9.212;2023-02-17T00:22:47;32.95;;;29.95;;
7817;SDS011;3954;52.624;9.212;2023-02-17T00:25:12;34.00;;;30.70;;
7817;SDS011;3954;52.624;9.212;2023-02-17T00:27:38;33.90;;;30.80;;
7817;SDS011;3954;52.624;9.212;2023-02-17T00:30:05;37.70;;;33.88;;
7817;SDS011;3954;52.624;9.212;2023-02-17T00:32:31;35.90;;;32.47;;
7817;SDS011;3954;52.624;9.212;2023-02-17T00:34:57;35.35;;;31.92;;
7817;SDS011;3954;52.624;9.212;2023-02-17T00:37:25;36.63;;;33.10;;
7817;SDS011;3954;52.624;9.212;2023-02-17T00:39:50;39.33;;;35.35;;
7817;SDS011;3954;52.624;9.212;2023-02-17T00:42:17;39.40;;;35.47;;
7817;SDS011;3954;52.624;9.212;2023-02-17T00:44:42;38.42;;;34.55;;
7817;SDS011;3954;52.624;9.212;2023-02-17T00:47:08;37.67;;;33.92;;
7817;SDS011;3954;52.624;9.212;2023-02-17T00:49:34;36.50;;;32.90;;
7817;SDS011;3954;52.624;9.212;2023-02-17T00:52:00;36.88;;;33.28;;
7817;SDS011;3954;52.624;9.212;2023-02-17T00:54:28;36.33;;;32.83;;
7817;SDS011;3954;52.624;9.212;2023-02-17T00:56:54;35.08;;;31.58;;
7817;SDS011;3954;52.624;9.212;2023-02-17T00:59:20;37.10;;;33.60;;
7817;SDS011;3954;52.624;9.212;2023-02-17T01:01:46;37.05;;;33.47;;
7817;SDS011;3954;52.624;9.212;2023-02-17T01:04:12;36.53;;;32.83;;
7817;SDS011;3954;52.624;9.212;2023-02-17T01:06:38;33.65;;;30.52;;
7817;SDS011;3954;52.624;9.212;2023-02-17T01:09:05;35.83;;;32.40;;
7817;SDS011;3954;52.624;9.212;2023-02-17T01:11:33;36.17;;;32.78;;
7817;SDS011;3954;52.624;9.212;2023-02-17T01:14:00;38.13;;;34.40;;
7817;SDS011;3954;52.624;9.212;2023-02-17T01:16:26;33.63;;;30.33;;
7817;SDS011;3954;52.624;9.212;2023-02-17T01:18:53;35.50;;;31.92;;
7817;SDS011;3954;52.624;9.212;2023-02-17T01:21:20;33.83;;;30.63;;
7817;SDS011;3954;52.624;9.212;2023-02-17T01:23:47;33.78;;;30.48;;
7817;SDS011;3954;52.624;9.212;2023-02-17T01:26:13;33.42;;;30.25;;
7817;SDS011;3954;52.624;9.212;2023-02-17T01:28:41;33.25;;;30.15;;
7817;SDS011;3954;52.624;9.212;2023-02-17T01:31:07;31.17;;;28.27;;
7817;SDS011;3954;52.624;9.212;2023-02-17T01:33:34;30.65;;;27.83;;
7817;SDS011;3954;52.624;9.212;2023-02-17T01:36:00;30.90;;;28.00;;
7817;SDS011;3954;52.624;9.212;2023-02-17T01:38:26;30.52;;;27.73;;
7817;SDS011;3954;52.624;9.212;2023-02-17T01:40:52;33.15;;;29.98;;
7817;SDS011;3954;52.624;9.212;2023-02-17T01:43:19;31.83;;;28.80;;
7817;SDS011;3954;52.624;9.212;2023-02-17T01:45:47;29.90;;;27.15;;
7817;SDS011;3954;52.624;9.212;2023-02-17T01:48:15;29.17;;;26.35;;
7817;SDS011;3954;52.624;9.212;2023-02-17T01:50:42;29.42;;;26.65;;
7817;SDS011;3954;52.624;9.212;2023-02-17T01:53:09;28.25;;;25.73;;
7817;SDS011;3954;52.624;9.212;2023-02-17T01:55:36;29.90;;;27.15;;
7817;SDS011;3954;52.624;9.212;2023-02-17T01:58:04;30.70;;;27.80;;
7817;SDS011;3954;52.624;9.212;2023-02-17T02:00:31;30.23;;;27.43;;
7817;SDS011;3954;52.624;9.212;2023-02-17T02:02:59;32.25;;;29.17;;
7817;SDS011;3954;52.624;9.212;2023-02-17T02:05:26;32.13;;;29.13;;
7817;SDS011;3954;52.624;9.212;2023-02-17T02:07:52;34.25;;;30.90;;
7817;SDS011;3954;52.624;9.212;2023-02-17T02:10:18;31.17;;;28.27;;
7817;SDS011;3954;52.624;9.212;2023-02-17T02:12:44;31.30;;;28.35;;
7817;SDS011;3954;52.624;9.212;2023-02-17T02:15:11;31.08;;;28.02;;
7817;SDS011;3954;52.624;9.212;2023-02-17T02:17:39;29.40;;;26.70;;
7817;SDS011;3954;52.624;9.212;2023-02-17T02:20:24;31.00;;;28.10;;
7817;SDS011;3954;52.624;9.212;2023-02-17T02:25:56;30.30;;;27.40;;
7817;SDS011;3954;52.624;9.212;2023-02-17T02:28:29;32.40;;;29.25;;
7817;SDS011;3954;52.624;9.212;2023-02-17T02:31:04;33.85;;;30.55;;
7817;SDS011;3954;52.624;9.212;2023-02-17T02:33:33;34.50;;;31.10;;
7817;SDS011;3954;52.624;9.212;2023-02-17T02:36:02;31.48;;;28.48;;
7817;SDS011;3954;52.624;9.212;2023-02-17T02:38:31;30.95;;;27.92;;
7817;SDS011;3954;52.624;9.212;2023-02-17T02:41:01;29.10;;;26.40;;
7817;SDS011;3954;52.624;9.212;2023-02-17T02:43:28;30.13;;;27.13;;
7817;SDS011;3954;52.624;9.212;2023-02-17T02:45:54;30.92;;;27.95;;
7817;SDS011;3954;52.624;9.212;2023-02-17T02:48:20;28.83;;;26.13;;
7817;SDS011;3954;52.624;9.212;2023-02-17T02:50:52;27.38;;;24.88;;
7817;SDS011;3954;52.624;9.212;2023-02-17T02:53:30;27.58;;;24.92;;
7817;SDS011;3954;52.624;9.212;2023-02-17T02:56:00;27.23;;;24.63;;
7817;SDS011;3954;52.624;9.212;2023-02-17T02:58:31;26.35;;;23.95;;
7817;SDS011;3954;52.624;9.212;2023-02-17T03:01:02;27.52;;;25.00;;
7817;SDS011;3954;52.624;9.212;2023-02-17T03:03:32;27.73;;;24.95;;
7817;SDS011;3954;52.624;9.212;2023-02-17T03:06:04;27.73;;;25.02;;
7817;SDS011;3954;52.624;9.212;2023-02-17T03:08:32;28.38;;;25.63;;
7817;SDS011;3954;52.624;9.212;2023-02-17T03:11:00;27.42;;;24.92;;
7817;SDS011;3954;52.624;9.212;2023-02-17T03:13:26;28.23;;;25.52;;
7817;SDS011;3954;52.624;9.212;2023-02-17T03:15:52;28.20;;;25.50;;
7817;SDS011;3954;52.624;9.212;2023-02-17T03:18:18;26.55;;;24.08;;
7817;SDS011;3954;52.624;9.212;2023-02-17T03:20:44;27.03;;;24.43;;
7817;SDS011;3954;52.624;9.212;2023-02-17T03:23:14;26.13;;;23.70;;
7817;SDS011;3954;52.624;9.212;2023-02-17T03:25:40;26.48;;;24.08;;
7817;SDS011;3954;52.624;9.212;2023-02-17T03:28:07;25.77;;;23.40;;
7817;SDS011;3954;52.624;9.212;2023-02-17T03:30:33;23.52;;;21.33;;
7817;SDS011;3954;52.624;9.212;2023-02-17T03:32:59;22.80;;;20.77;;
7817;SDS011;3954;52.624;9.212;2023-02-17T03:35:25;22.67;;;20.55;;
7817;SDS011;3954;52.624;9.212;2023-02-17T03:37:51;23.40;;;21.20;;
7817;SDS011;3954;52.624;9.212;2023-02-17T03:40:18;24.02;;;21.88;;
7817;SDS011;3954;52.624;9.212;2023-02-17T03:42:44;22.75;;;20.75;;
7817;SDS011;3954;52.624;9.212;2023-02-17T03:45:10;24.65;;;22.25;;
7817;SDS011;3954;52.624;9.212;2023-02-17T03:47:36;24.20;;;21.95;;
7817;SDS011;3954;52.624;9.212;2023-02-17T03:50:03;24.10;;;21.90;;
7817;SDS011;3954;52.624;9.212;2023-02-17T03:52:29;24.77;;;22.45;;
7817;SDS011;3954;52.624;9.212;2023-02-17T03:54:55;23.63;;;21.42;;
7817;SDS011;3954;52.624;9.212;2023-02-17T03:57:22;24.67;;;22.42;;
7817;SDS011;3954;52.624;9.212;2023-02-17T03:59:48;24.35;;;22.05;;
7817;SDS011;3954;52.624;9.212;2023-02-17T04:02:14;26.30;;;23.70;;
7817;SDS011;3954;52.624;9.212;2023-02-17T04:04:40;26.33;;;23.92;;
7817;SDS011;3954;52.624;9.212;2023-02-17T04:07:06;25.20;;;22.70;;
7817;SDS011;3954;52.624;9.212;2023-02-17T04:09:32;24.40;;;22.10;;
7817;SDS011;3954;52.624;9.212;2023-02-17T04:11:58;24.40;;;22.20;;
7817;SDS011;3954;52.624;9.212;2023-02-17T04:14:25;23.25;;;21.05;;
7817;SDS011;3954;52.624;9.212;2023-02-17T04:16:51;25.33;;;22.93;;
7817;SDS011;3954;52.624;9.212;2023-02-17T04:19:17;25.23;;;22.92;;
7817;SDS011;3954;52.624;9.212;2023-02-17T04:21:43;26.88;;;24.27;;
7817;SDS011;3954;52.624;9.212;2023-02-17T04:24:09;26.88;;;24.27;;
7817;SDS011;3954;52.624;9.212;2023-02-17T04:26:35;25.17;;;22.80;;
7817;SDS011;3954;52.624;9.212;2023-02-17T04:29:02;25.48;;;23.05;;
7817;SDS011;3954;52.624;9.212;2023-02-17T04:31:29;24.20;;;21.87;;
7817;SDS011;3954;52.624;9.212;2023-02-17T04:33:55;24.33;;;22.13;;
7817;SDS011;3954;52.624;9.212;2023-02-17T04:36:21;23.85;;;21.65;;
7817;SDS011;3954;52.624;9.212;2023-02-17T04:38:47;24.33;;;22.10;;
7817;SDS011;3954;52.624;9.212;2023-02-17T04:41:13;23.67;;;21.40;;
7817;SDS011;3954;52.624;9.212;2023-02-17T04:43:39;22.60;;;20.60;;
7817;SDS011;3954;52.624;9.212;2023-02-17T04:46:05;24.02;;;21.80;;
7817;SDS011;3954;52.624;9.212;2023-02-17T04:48:33;21.67;;;19.75;;
7817;SDS011;3954;52.624;9.212;2023-02-17T04:50:59;21.67;;;19.77;;
7817;SDS011;3954;52.624;9.212;2023-02-17T04:53:25;22.50;;;20.40;;
7817;SDS011;3954;52.624;9.212;2023-02-17T04:55:51;22.65;;;20.55;;
7817;SDS011;3954;52.624;9.212;2023-02-17T04:58:17;21.73;;;19.77;;
7817;SDS011;3954;52.624;9.212;2023-02-17T05:00:44;22.05;;;20.05;;
7817;SDS011;3954;52.624;9.212;2023-02-17T05:03:10;22.40;;;20.30;;
7817;SDS011;3954;52.624;9.212;2023-02-17T05:05:38;20.92;;;19.10;;
7817;SDS011;3954;52.624;9.212;2023-02-17T05:08:04;20.83;;;18.98;;
7817;SDS011;3954;52.624;9.212;2023-02-17T05:10:30;21.42;;;19.52;;
7817;SDS011;3954;52.624;9.212;2023-02-17T05:12:56;21.00;;;19.00;;
7817;SDS011;3954;52.624;9.212;2023-02-17T05:15:22;20.38;;;18.48;;
7817;SDS011;3954;52.624;9.212;2023-02-17T05:17:48;20.17;;;18.33;;
7817;SDS011;3954;52.624;9.212;2023-02-17T05:20:14;19.98;;;18.27;;
7817;SDS011;3954;52.624;9.212;2023-02-17T05:22:41;18.75;;;17.15;;
7817;SDS011;3954;52.624;9.212;2023-02-17T05:25:07;19.63;;;17.92;;
7817;SDS011;3954;52.624;9.212;2023-02-17T05:27:33;19.58;;;17.88;;
7817;SDS011;3954;52.624;9.212;2023-02-17T05:29:59;20.75;;;18.95;;
7817;SDS011;3954;52.624;9.212;2023-02-17T05:32:26;20.27;;;18.42;;
7817;SDS011;3954;52.624;9.212;2023-02-17T05:34:52;19.77;;;17.97;;
7817;SDS011;3954;52.624;9.212;2023-02-17T05:37:18;19.70;;;17.90;;
7817;SDS011;3954;52.624;9.212;2023-02-17T05:39:45;19.42;;;17.73;;
7817;SDS011;3954;52.624;9.212;2023-02-17T05:42:11;19.35;;;17.65;;
7817;SDS011;3954;52.624;9.212;2023-02-17T05:44:37;18.83;;;17.13;;
7817;SDS011;3954;52.624;9.212;2023-02-17T05:47:03;19.00;;;17.30;;
7817;SDS011;3954;52.624;9.212;2023-02-17T05:49:29;18.80;;;17.20;;
7817;SDS011;3954;52.624;9.212;2023-02-17T05:51:55;18.83;;;17.23;;
7817;SDS011;3954;52.624;9.212;2023-02-17T05:54:21;18.90;;;17.20;;
7817;SDS011;3954;52.624;9.212;2023-02-17T05:56:49;19.85;;;18.05;;
7817;SDS011;3954;52.624;9.212;2023-02-17T05:59:15;18.88;;;17.17;;
7817;SDS011;3954;52.624;9.212;2023-02-17T06:01:41;20.38;;;18.38;;
7817;SDS011;3954;52.624;9.212;2023-02-17T06:04:07;19.38;;;17.58;;
7817;SDS011;3954;52.624;9.212;2023-02-17T06:06:33;18.17;;;16.58;;
7817;SDS011;3954;52.624;9.212;2023-02-17T06:08:59;18.40;;;16.80;;
7817;SDS011;3954;52.624;9.212;2023-02-17T06:11:25;18.52;;;16.83;;
7817;SDS011;3954;52.624;9.212;2023-02-17T06:13:52;19.05;;;17.30;;
7817;SDS011;3954;52.624;9.212;2023-02-17T06:16:18;19.52;;;17.67;;
7817;SDS011;3954;52.624;9.212;2023-02-17T06:18:44;21.10;;;19.05;;
7817;SDS011;3954;52.624;9.212;2023-02-17T06:21:10;20.70;;;18.77;;
7817;SDS011;3954;52.624;9.212;2023-02-17T06:23:36;18.40;;;16.70;;
7817;SDS011;3954;52.624;9.212;2023-02-17T06:26:02;17.35;;;15.82;;
7817;SDS011;3954;52.624;9.212;2023-02-17T06:28:28;17.50;;;15.90;;
7817;SDS011;3954;52.624;9.212;2023-02-17T06:30:55;17.33;;;15.73;;
7817;SDS011;3954;52.624;9.212;2023-02-17T06:33:21;17.55;;;15.98;;
7817;SDS011;3954;52.624;9.212;2023-02-17T06:35:47;17.80;;;16.10;;
7817;SDS011;3954;52.624;9.212;2023-02-17T06:38:14;17.70;;;16.10;;
7817;SDS011;3954;52.624;9.212;2023-02-17T06:40:40;16.98;;;15.48;;
7817;SDS011;3954;52.624;9.212;2023-02-17T06:43:06;17.77;;;16.08;;
7817;SDS011;3954;52.624;9.212;2023-02-17T06:45:32;17.97;;;16.17;;
7817;SDS011;3954;52.624;9.212;2023-02-17T06:47:59;18.30;;;16.50;;
7817;SDS011;3954;52.624;9.212;2023-02-17T06:50:25;19.85;;;17.90;;
7817;SDS011;3954;52.624;9.212;2023-02-17T06:52:51;16.60;;;15.07;;
7817;SDS011;3954;52.624;9.212;2023-02-17T06:55:17;15.43;;;14.03;;
7817;SDS011;3954;52.624;9.212;2023-02-17T06:57:43;16.23;;;14.63;;
7817;SDS011;3954;52.624;9.212;2023-02-17T07:00:10;15.77;;;14.38;;
7817;SDS011;3954;52.624;9.212;2023-02-17T07:02:36;15.02;;;13.73;;
7817;SDS011;3954;52.624;9.212;2023-02-17T07:05:04;15.83;;;14.43;;
7817;SDS011;3954;52.624;9.212;2023-02-17T07:07:30;15.85;;;14.45;;
7817;SDS011;3954;52.624;9.212;2023-02-17T07:09:56;16.27;;;14.80;;
7817;SDS011;3954;52.624;9.212;2023-02-17T07:12:22;14.75;;;13.45;;
7817;SDS011;3954;52.624;9.212;2023-02-17T07:14:48;15.67;;;14.27;;
7817;SDS011;3954;52.624;9.212;2023-02-17T07:17:14;14.68;;;13.43;;
7817;SDS011;3954;52.624;9.212;2023-02-17T07:19:40;16.05;;;14.50;;
7817;SDS011;3954;52.624;9.212;2023-02-17T07:22:07;16.02;;;14.52;;
7817;SDS011;3954;52.624;9.212;2023-02-17T07:24:33;14.85;;;13.52;;
7817;SDS011;3954;52.624;9.212;2023-02-17T07:26:59;16.10;;;14.70;;
7817;SDS011;3954;52.624;9.212;2023-02-17T07:29:25;16.02;;;14.52;;
7817;SDS011;3954;52.624;9.212;2023-02-17T07:31:51;15.18;;;13.88;;
7817;SDS011;3954;52.624;9.212;2023-02-17T07:34:17;15.60;;;14.10;;
7817;SDS011;3954;52.624;9.212;2023-02-17T07:36:43;16.20;;;14.63;;
7817;SDS011;3954;52.624;9.212;2023-02-17T07:39:10;15.20;;;13.80;;
7817;SDS011;3954;52.624;9.212;2023-02-17T07:41:36;15.50;;;14.00;;
7817;SDS011;3954;52.624;9.212;2023-02-17T07:44:02;15.82;;;14.35;;
7817;SDS011;3954;52.624;9.212;2023-02-17T07:46:29;16.38;;;14.85;;
7817;SDS011;3954;52.624;9.212;2023-02-17T07:48:55;14.52;;;13.25;;
7817;SDS011;3954;52.624;9.212;2023-02-17T07:51:21;15.40;;;13.90;;
7817;SDS011;3954;52.624;9.212;2023-02-17T07:53:47;14.90;;;13.50;;
7817;SDS011;3954;52.624;9.212;2023-02-17T07:56:15;14.43;;;13.20;;
7817;SDS011;3954;52.624;9.212;2023-02-17T07:58:42;14.90;;;13.50;;
7817;SDS011;3954;52.624;9.212;2023-02-17T08:01:10;14.75;;;13.43;;
7817;SDS011;3954;52.624;9.212;2023-02-17T08:03:36;14.57;;;13.07;;
7817;SDS011;3954;52.624;9.212;2023-02-17T08:06:02;15.07;;;13.57;;
7817;SDS011;3954;52.624;9.212;2023-02-17T08:08:28;13.73;;;12.48;;
7817;SDS011;3954;52.624;9.212;2023-02-17T08:11:15;13.98;;;12.57;;
7817;SDS011;3954;52.624;9.212;2023-02-17T08:14:01;13.18;;;11.88;;
7817;SDS011;3954;52.624;9.212;2023-02-17T08:16:27;13.00;;;11.70;;
7817;SDS011;3954;52.624;9.212;2023-02-17T08:18:54;11.70;;;10.60;;
7817;SDS011;3954;52.624;9.212;2023-02-17T08:21:20;12.82;;;11.63;;
7817;SDS011;3954;52.624;9.212;2023-02-17T08:23:46;12.07;;;10.93;;
7817;SDS011;3954;52.624;9.212;2023-02-17T08:26:12;12.05;;;10.85;;
7817;SDS011;3954;52.624;9.212;2023-02-17T08:28:40;11.57;;;10.48;;
7817;SDS011;3954;52.624;9.212;2023-02-17T08:31:13;11.20;;;10.10;;
7817;SDS011;3954;52.624;9.212;2023-02-17T08:33:39;10.07;;;9.07;;
7817;SDS011;3954;52.624;9.212;2023-02-17T08:36:05;9.90;;;9.00;;
7817;SDS011;3954;52.624;9.212;2023-02-17T08:38:32;10.30;;;9.32;;
7817;SDS011;3954;52.624;9.212;2023-02-17T08:40:58;10.80;;;9.60;;
7817;SDS011;3954;52.624;9.212;2023-02-17T08:43:24;9.60;;;8.65;;
7817;SDS011;3954;52.624;9.212;2023-02-17T08:45:52;9.00;;;8.18;;
7817;SDS011;3954;52.624;9.212;2023-02-17T08:48:18;9.32;;;8.50;;
7817;SDS011;3954;52.624;9.212;2023-02-17T08:50:45;8.82;;;7.93;;
7817;SDS011;3954;52.624;9.212;2023-02-17T08:53:11;9.38;;;8.32;;
7817;SDS011;3954;52.624;9.212;2023-02-17T08:55:37;8.82;;;8.02;;
7817;SDS011;3954;52.624;9.212;2023-02-17T08:58:03;9.20;;;8.37;;
7817;SDS011;3954;52.624;9.212;2023-02-17T09:00:29;9.00;;;8.20;;
7817;SDS011;3954;52.624;9.212;2023-02-17T09:02:56;8.50;;;7.80;;
7817;SDS011;3954;52.624;9.212;2023-02-17T09:05:22;9.47;;;8.53;;
7817;SDS011;3954;52.624;9.212;2023-02-17T09:07:48;9.40;;;8.52;;
7817;SDS011;3954;52.624;9.212;2023-02-17T09:10:14;8.63;;;7.93;;
7817;SDS011;3954;52.624;9.212;2023-02-17T09:12:40;9.13;;;8.27;;
7817;SDS011;3954;52.624;9.212;2023-02-17T09:15:06;9.13;;;8.32;;
7817;SDS011;3954;52.624;9.212;2023-02-17T09:17:33;9.43;;;8.60;;
7817;SDS011;3954;52.624;9.212;2023-02-17T09:20:00;9.87;;;8.97;;
7817;SDS011;3954;52.624;9.212;2023-02-17T09:22:26;9.85;;;8.93;;
7817;SDS011;3954;52.624;9.212;2023-02-17T09:24:52;10.07;;;9.18;;
7817;SDS011;3954;52.624;9.212;2023-02-17T09:27:18;10.17;;;9.17;;
7817;SDS011;3954;52.624;9.212;2023-02-17T09:29:44;10.23;;;9.23;;
7817;SDS011;3954;52.624;9.212;2023-02-17T09:32:10;10.20;;;9.18;;
7817;SDS011;3954;52.624;9.212;2023-02-17T09:34:36;10.15;;;9.30;;
7817;SDS011;3954;52.624;9.212;2023-02-17T09:37:03;9.70;;;8.90;;
7817;SDS011;3954;52.624;9.212;2023-02-17T09:39:29;10.43;;;9.52;;
7817;SDS011;3954;52.624;9.212;2023-02-17T09:41:55;10.20;;;9.30;;
7817;SDS011;3954;52.624;9.212;2023-02-17T09:44:22;9.90;;;8.95;;
7817;SDS011;3954;52.624;9.212;2023-02-17T09:46:51;9.98;;;9.07;;
7817;SDS011;3954;52.624;9.212;2023-02-17T09:49:21;9.68;;;8.77;;
7817;SDS011;3954;52.624;9.212;2023-02-17T09:51:48;9.48;;;8.68;;
7817;SDS011;3954;52.624;9.212;2023-02-17T09:54:18;10.27;;;9.27;;
7817;SDS011;3954;52.624;9.212;2023-02-17T09:56:46;11.32;;;10.23;;
7817;SDS011;3954;52.624;9.212;2023-02-17T09:59:14;11.43;;;10.32;;
7817;SDS011;3954;52.624;9.212;2023-02-17T10:01:41;11.32;;;10.32;;
7817;SDS011;3954;52.624;9.212;2023-02-17T10:04:07;11.60;;;10.50;;
7817;SDS011;3954;52.624;9.212;2023-02-17T10:06:36;12.65;;;11.38;;
7817;SDS011;3954;52.624;9.212;2023-02-17T10:09:03;11.98;;;10.93;;
7817;SDS011;3954;52.624;9.212;2023-02-17T10:11:33;12.65;;;11.45;;
7817;SDS011;3954;52.624;9.212;2023-02-17T10:14:00;12.13;;;11.02;;
7817;SDS011;3954;52.624;9.212;2023-02-17T10:16:28;13.23;;;11.93;;
7817;SDS011;3954;52.624;9.212;2023-02-17T10:18:56;13.65;;;12.27;;
7817;SDS011;3954;52.624;9.212;2023-02-17T10:21:25;13.40;;;12.10;;
7817;SDS011;3954;52.624;9.212;2023-02-17T10:23:51;13.40;;;12.10;;
7817;SDS011;3954;52.624;9.212;2023-02-17T10:26:20;12.57;;;11.48;;
7817;SDS011;3954;52.624;9.212;2023-02-17T10:28:49;13.10;;;11.90;;
7817;SDS011;3954;52.624;9.212;2023-02-17T10:31:19;14.27;;;12.88;;
7817;SDS011;3954;52.624;9.212;2023-02-17T10:33:49;13.97;;;12.57;;
7817;SDS011;3954;52.624;9.212;2023-02-17T10:36:18;14.77;;;12.10;;
7817;SDS011;3954;52.624;9.212;2023-02-17T10:38:48;12.82;;;11.63;;
7817;SDS011;3954;52.624;9.212;2023-02-17T10:41:16;13.00;;;11.70;;
7817;SDS011;3954;52.624;9.212;2023-02-17T10:43:44;13.13;;;11.85;;
7817;SDS011;3954;52.624;9.212;2023-02-17T10:46:12;12.63;;;11.33;;
7817;SDS011;3954;52.624;9.212;2023-02-17T10:48:42;13.05;;;11.80;;
7817;SDS011;3954;52.624;9.212;2023-02-17T10:51:10;13.13;;;11.73;;
7817;SDS011;3954;52.624;9.212;2023-02-17T10:53:38;12.53;;;11.37;;
7817;SDS011;3954;52.624;9.212;2023-02-17T10:56:05;12.57;;;11.32;;
7817;SDS011;3954;52.624;9.212;2023-02-17T10:58:34;12.52;;;11.32;;
7817;SDS011;3954;52.624;9.212;2023-02-17T11:01:02;12.13;;;10.98;;
7817;SDS011;3954;52.624;9.212;2023-02-17T11:03:31;12.30;;;11.18;;
7817;SDS011;3954;52.624;9.212;2023-02-17T11:05:58;12.20;;;11.10;;
7817;SDS011;3954;52.624;9.212;2023-02-17T11:08:27;12.50;;;11.30;;
7817;SDS011;3954;52.624;9.212;2023-02-17T11:10:58;12.32;;;11.13;;
7817;SDS011;3954;52.624;9.212;2023-02-17T11:13:35;12.32;;;11.05;;
7817;SDS011;3954;52.624;9.212;2023-02-17T11:16:02;11.38;;;10.27;;
7817;SDS011;3954;52.624;9.212;2023-02-17T11:18:31;11.75;;;10.57;;
7817;SDS011;3954;52.624;9.212;2023-02-17T11:20:59;11.75;;;10.48;;
7817;SDS011;3954;52.624;9.212;2023-02-17T11:23:25;12.60;;;10.80;;
7817;SDS011;3954;52.624;9.212;2023-02-17T11:25:55;11.20;;;10.10;;
7817;SDS011;3954;52.624;9.212;2023-02-17T11:28:22;12.82;;;11.52;;
7817;SDS011;3954;52.624;9.212;2023-02-17T11:30:50;11.85;;;10.65;;
7817;SDS011;3954;52.624;9.212;2023-02-17T11:33:19;12.30;;;11.10;;
7817;SDS011;3954;52.624;9.212;2023-02-17T11:35:49;12.15;;;10.95;;
7817;SDS011;3954;52.624;9.212;2023-02-17T11:38:16;12.25;;;10.95;;
7817;SDS011;3954;52.624;9.212;2023-02-17T11:40:50;12.45;;;11.20;;
7817;SDS011;3954;52.624;9.212;2023-02-17T11:43:16;12.40;;;11.10;;
7817;SDS011;3954;52.624;9.212;2023-02-17T11:45:48;11.45;;;10.32;;
7817;SDS011;3954;52.624;9.212;2023-02-17T11:48:24;11.93;;;10.73;;
7817;SDS011;3954;52.624;9.212;2023-02-17T11:50:54;11.77;;;10.57;;
7817;SDS011;3954;52.624;9.212;2023-02-17T11:53:25;12.40;;;10.80;;
7817;SDS011;3954;52.624;9.212;2023-02-17T11:55:58;11.70;;;10.55;;
7817;SDS011;3954;52.624;9.212;2023-02-17T11:58:28;11.27;;;10.18;;
7817;SDS011;3954;52.624;9.212;2023-02-17T12:00:58;12.20;;;10.95;;
7817;SDS011;3954;52.624;9.212;2023-02-17T12:06:12;12.23;;;11.02;;
7817;SDS011;3954;52.624;9.212;2023-02-17T12:08:45;10.85;;;9.75;;
7817;SDS011;3954;52.624;9.212;2023-02-17T12:11:16;12.00;;;10.82;;
7817;SDS011;3954;52.624;9.212;2023-02-17T12:13:47;12.30;;;11.10;;
7817;SDS011;3954;52.624;9.212;2023-02-17T12:16:20;12.23;;;11.02;;
7817;SDS011;3954;52.624;9.212;2023-02-17T12:18:51;12.05;;;10.85;;
7817;SDS011;3954;52.624;9.212;2023-02-17T12:21:27;11.70;;;10.60;;
7817;SDS011;3954;52.624;9.212;2023-02-17T12:24:01;11.98;;;10.77;;
7817;SDS011;3954;52.624;9.212;2023-02-17T12:26:32;12.38;;;10.48;;
7817;SDS011;3954;52.624;9.212;2023-02-17T12:29:02;11.63;;;10.52;;
7817;SDS011;3954;52.624;9.212;2023-02-17T12:31:49;11.65;;;10.55;;
7817;SDS011;3954;52.624;9.212;2023-02-17T12:34:20;12.00;;;10.90;;
7817;SDS011;3954;52.624;9.212;2023-02-17T12:36:51;11.53;;;10.33;;
7817;SDS011;3954;52.624;9.212;2023-02-17T12:39:21;11.65;;;10.65;;
7817;SDS011;3954;52.624;9.212;2023-02-17T12:41:49;13.32;;;11.25;;
7817;SDS011;3954;52.624;9.212;2023-02-17T12:44:17;14.63;;;13.23;;
7817;SDS011;3954;52.624;9.212;2023-02-17T12:46:46;41.83;;;37.45;;
7817;SDS011;3954;52.624;9.212;2023-02-17T12:49:15;11.85;;;10.63;;
7817;SDS011;3954;52.624;9.212;2023-02-17T12:51:42;14.20;;;12.90;;
7817;SDS011;3954;52.624;9.212;2023-02-17T12:54:13;19.63;;;17.75;;
7817;SDS011;3954;52.624;9.212;2023-02-17T12:59:25;13.20;;;11.93;;
7817;SDS011;3954;52.624;9.212;2023-02-17T13:01:57;13.18;;;11.98;;
7817;SDS011;3954;52.624;9.212;2023-02-17T13:04:24;12.73;;;11.43;;
7817;SDS011;3954;52.624;9.212;2023-02-17T13:06:52;14.13;;;12.82;;
7817;SDS011;3954;52.624;9.212;2023-02-17T13:09:23;12.50;;;11.20;;
7817;SDS011;3954;52.624;9.212;2023-02-17T13:11:49;12.68;;;11.52;;
7817;SDS011;3954;52.624;9.212;2023-02-17T13:14:23;12.38;;;11.27;;
7817;SDS011;3954;52.624;9.212;2023-02-17T13:16:49;12.27;;;11.05;;
7817;SDS011;3954;52.624;9.212;2023-02-17T13:19:17;11.98;;;10.88;;
7817;SDS011;3954;52.624;9.212;2023-02-17T13:21:52;11.63;;;10.52;;
7817;SDS011;3954;52.624;9.212;2023-02-17T13:24:30;12.88;;;11.77;;
7817;SDS011;3954;52.624;9.212;2023-02-17T13:27:07;11.98;;;10.88;;
7817;SDS011;3954;52.624;9.212;2023-02-17T13:29:34;12.45;;;11.25;;
7817;SDS011;3954;52.624;9.212;2023-02-17T13:32:01;11.65;;;10.57;;
7817;SDS011;3954;52.624;9.212;2023-02-17T13:34:29;11.37;;;10.27;;
7817;SDS011;3954;52.624;9.212;2023-02-17T13:36:56;10.97;;;9.90;;
7817;SDS011;3954;52.624;9.212;2023-02-17T13:39:34;10.77;;;9.68;;
7817;SDS011;3954;52.624;9.212;2023-02-17T13:42:00;10.82;;;9.82;;
7817;SDS011;3954;52.624;9.212;2023-02-17T13:44:27;10.55;;;9.65;;
7817;SDS011;3954;52.624;9.212;2023-02-17T13:46:55;10.57;;;9.60;;
7817;SDS011;3954;52.624;9.212;2023-02-17T13:49:22;9.40;;;8.40;;
7817;SDS011;3954;52.624;9.212;2023-02-17T13:51:50;15.70;;;14.50;;
7817;SDS011;3954;52.624;9.212;2023-02-17T13:54:18;12.75;;;11.75;;
7817;SDS011;3954;52.624;9.212;2023-02-17T13:56:49;8.93;;;8.13;;
7817;SDS011;3954;52.624;9.212;2023-02-17T13:59:16;8.70;;;8.00;;
7817;SDS011;3954;52.624;9.212;2023-02-17T14:01:43;8.23;;;7.53;;
7817;SDS011;3954;52.624;9.212;2023-02-17T14:04:17;7.80;;;7.07;;
7817;SDS011;3954;52.624;9.212;2023-02-17T14:06:44;7.88;;;7.18;;
7817;SDS011;3954;52.624;9.212;2023-02-17T14:09:17;8.43;;;7.63;;
7817;SDS011;3954;52.624;9.212;2023-02-17T14:11:45;8.27;;;7.47;;
7817;SDS011;3954;52.624;9.212;2023-02-17T14:14:13;7.55;;;6.78;;
7817;SDS011;3954;52.624;9.212;2023-02-17T14:16:40;7.07;;;6.47;;
7817;SDS011;3954;52.624;9.212;2023-02-17T14:19:08;8.13;;;6.93;;
7817;SDS011;3954;52.624;9.212;2023-02-17T14:21:35;7.53;;;6.82;;
7817;SDS011;3954;52.624;9.212;2023-02-17T14:24:01;7.75;;;6.82;;
7817;SDS011;3954;52.624;9.212;2023-02-17T14:26:29;7.47;;;6.85;;
7817;SDS011;3954;52.624;9.212;2023-02-17T14:28:56;7.30;;;6.70;;
7817;SDS011;3954;52.624;9.212;2023-02-17T14:31:24;7.22;;;6.60;;
7817;SDS011;3954;52.624;9.212;2023-02-17T14:33:51;13.95;;;12.85;;
7817;SDS011;3954;52.624;9.212;2023-02-17T14:36:23;7.03;;;6.32;;
7817;SDS011;3954;52.624;9.212;2023-02-17T14:38:52;6.75;;;6.10;;
7817;SDS011;3954;52.624;9.212;2023-02-17T14:41:19;7.22;;;6.53;;
7817;SDS011;3954;52.624;9.212;2023-02-17T14:43:45;7.47;;;6.68;;
7817;SDS011;3954;52.624;9.212;2023-02-17T14:46:11;7.07;;;6.38;;
7817;SDS011;3954;52.624;9.212;2023-02-17T14:48:40;7.78;;;7.00;;
7817;SDS011;3954;52.624;9.212;2023-02-17T14:51:08;7.38;;;6.68;;
7817;SDS011;3954;52.624;9.212;2023-02-17T14:53:36;7.20;;;6.50;;
7817;SDS011;3954;52.624;9.212;2023-02-17T14:56:05;8.52;;;7.70;;
7817;SDS011;3954;52.624;9.212;2023-02-17T14:58:32;7.47;;;6.68;;
7817;SDS011;3954;52.624;9.212;2023-02-17T15:00:58;7.03;;;6.43;;
7817;SDS011;3954;52.624;9.212;2023-02-17T15:03:24;8.88;;;7.97;;